Moscow, Maine
Current Conditions -  °F | °C
As of 4:55 PM on Thursday 27 Nov 2014 (Local Time) from KWVL Reporting Station
Clear Clear  
Wind Chill: 20°   Ceiling: Unl
Heat Index: 28°   Visibility: 10mi
Dew Point: 18°   Wind: 8mph
Humidity: 64%   Direction: 10°N
Pressure: 29.96"   Gusts: NA
Location:  45.1348°N, 69.8823°W
Report Text: KWVL 272155Z 01007KT 10SM CLR M02/M08 A2996 RMK AO1
Loading
Personal Weather Stations






























Interactive Weather Map New forecast layout! Learn more

10-Day Weather Forecast

Advertisements
Track Severe Weather on mobile